Time;durP1;ratioP1;P1;durP2;ratioP2;P2;SDS_P1;SDS_P2;PMS_P1;PMS_P2;Temp;Humidity;BMP_temperature;BMP_pressure;BME280_temperature;BME280_humidity;BME280_pressure;Samples;Min_cycle;Max_cycle;Signal;HPM_P1;HPM_P2
2023/03/29 00:02:18;;;;;;;1.35;0.25;;;19.80;60.60;;;;;;4953662;28;20102;-77
2023/03/29 00:04:45;;;;;;;2.88;0.82;;;19.80;60.70;;;;;;4935638;29;20495;-76
2023/03/29 00:07:13;;;;;;;2.70;0.98;;;19.80;60.70;;;;;;4959513;28;20051;-77
2023/03/29 00:09:41;;;;;;;2.40;1.10;;;19.70;60.70;;;;;;4954907;28;20471;-77
2023/03/29 00:12:09;;;;;;;2.38;1.00;;;19.70;60.70;;;;;;4955149;28;20102;-76
2023/03/29 00:14:36;;;;;;;2.42;1.15;;;19.70;60.80;;;;;;4951124;28;20055;-77
2023/03/29 00:17:03;;;;;;;2.20;1.00;;;19.60;60.80;;;;;;4953183;28;20066;-77
2023/03/29 00:19:34;;;;;;;1.63;1.02;;;19.60;60.80;;;;;;4940091;29;20066;-76
2023/03/29 00:22:01;;;;;;;1.90;0.30;;;19.60;60.80;;;;;;4935066;29;20090;-76
2023/03/29 00:24:28;;;;;;;1.65;0.73;;;19.50;60.80;;;;;;4967395;28;20047;-77
2023/03/29 00:26:56;;;;;;;1.88;0.40;;;19.50;60.90;;;;;;4951416;29;20059;-76
2023/03/29 00:29:23;;;;;;;1.98;0.90;;;19.50;61.50;;;;;;4971012;28;20054;-77
2023/03/29 00:31:52;;;;;;;2.15;0.40;;;19.40;60.90;;;;;;4954450;28;20066;-76
2023/03/29 00:34:19;;;;;;;1.92;0.70;;;19.40;60.90;;;;;;4971195;28;20043;-77
2023/03/29 00:36:49;;;;;;;2.03;0.95;;;19.40;60.90;;;;;;4952222;28;20038;-77
2023/03/29 00:39:16;;;;;;;1.45;0.30;;;19.40;60.90;;;;;;4963232;28;20082;-77
2023/03/29 00:41:45;;;;;;;2.60;1.40;;;19.40;60.90;;;;;;4971518;28;20134;-77
2023/03/29 00:44:44;;;;;;;2.38;1.13;;;19.40;60.90;;;;;;4969260;28;20126;-77
2023/03/29 00:47:12;;;;;;;1.50;0.82;;;19.40;60.90;;;;;;4951377;28;20051;-77
2023/03/29 00:49:40;;;;;;;2.80;1.33;;;19.40;60.90;;;;;;4934897;29;20062;-76
2023/03/29 00:52:08;;;;;;;1.88;0.88;;;19.50;60.90;;;;;;4954672;28;20055;-77
2023/03/29 00:54:37;;;;;;;1.80;0.70;;;19.50;60.90;;;;;;4971482;28;20047;-77
2023/03/29 00:57:08;;;;;;;2.78;1.08;;;19.50;60.80;;;;;;4963503;28;20089;-76
2023/03/29 00:59:35;;;;;;;1.73;0.20;;;19.50;60.70;;;;;;4952162;28;20137;-76
2023/03/29 01:02:05;;;;;;;3.10;0.98;;;19.60;60.70;;;;;;4952010;29;20055;-76
2023/03/29 01:04:39;;;;;;;1.88;0.85;;;19.60;60.60;;;;;;4934940;29;20576;-77
2023/03/29 01:07:11;;;;;;;1.20;0.22;;;19.70;60.50;;;;;;4965232;28;20059;-77
2023/03/29 01:09:43;;;;;;;1.48;0.75;;;19.70;60.40;;;;;;4953803;28;20214;-77
2023/03/29 01:12:17;;;;;;;2.30;1.05;;;19.80;60.30;;;;;;4971563;28;20055;-76
2023/03/29 01:14:50;;;;;;;2.80;1.23;;;19.90;60.20;;;;;;4970898;28;20053;-77
2023/03/29 01:17:20;;;;;;;1.95;0.57;;;19.90;60.20;;;;;;4953710;28;20055;-77
2023/03/29 01:19:56;;;;;;;1.65;0.20;;;20.00;60.10;;;;;;4970980;28;20094;-76
2023/03/29 01:22:37;;;;;;;1.95;0.75;;;20.10;59.90;;;;;;4971289;28;20046;-76
2023/03/29 01:25:13;;;;;;;2.15;0.65;;;20.10;59.80;;;;;;4970778;28;20114;-76
2023/03/29 01:27:50;;;;;;;1.95;0.77;;;20.20;59.70;;;;;;4952705;28;20050;-76
2023/03/29 01:30:23;;;;;;;1.50;0.75;;;20.20;59.60;;;;;;4953740;28;20055;-77
2023/03/29 01:32:55;;;;;;;1.88;0.93;;;20.20;59.60;;;;;;4970640;28;20058;-76
2023/03/29 01:35:31;;;;;;;2.25;1.20;;;20.20;59.60;;;;;;4971089;28;20050;-76
2023/03/29 01:38:06;;;;;;;2.47;1.27;;;20.20;59.60;;;;;;4951292;29;20488;-76
2023/03/29 01:40:33;;;;;;;1.60;0.77;;;20.20;59.70;;;;;;4951914;28;20061;-77
2023/03/29 01:43:10;;;;;;;1.83;0.82;;;20.20;59.70;;;;;;4952444;28;20143;-77
2023/03/29 01:45:42;;;;;;;1.98;0.85;;;20.10;59.80;;;;;;4953278;28;20055;-77
2023/03/29 01:48:15;;;;;;;2.30;1.15;;;20.10;59.90;;;;;;4949252;28;20054;-76
2023/03/29 01:50:46;;;;;;;2.58;0.82;;;20.10;59.90;;;;;;4952458;28;20082;-77
2023/03/29 01:53:17;;;;;;;1.75;0.70;;;20.10;60.00;;;;;;4970935;28;20097;-77
2023/03/29 01:55:49;;;;;;;2.47;0.73;;;20.00;60.00;;;;;;4942461;29;20055;-77
2023/03/29 01:58:18;;;;;;;1.30;0.20;;;20.00;60.00;;;;;;4947765;28;20496;-77
2023/03/29 02:00:45;;;;;;;;;;;19.90;60.60;;;;;;4935192;29;20133;-76
2023/03/29 02:03:16;;;;;;;1.60;0.75;;;19.90;60.00;;;;;;4950991;29;19981;-77
2023/03/29 02:05:45;;;;;;;1.65;0.68;;;19.90;60.00;;;;;;4965538;28;20047;-77
2023/03/29 02:08:15;;;;;;;1.85;1.00;;;19.80;60.00;;;;;;4970141;28;20465;-77
2023/03/29 02:10:42;;;;;;;1.40;0.75;;;19.80;60.70;;;;;;4953026;28;20059;-77
2023/03/29 02:13:09;;;;;;;1.40;0.75;;;19.80;60.10;;;;;;4970480;28;20051;-77
2023/03/29 02:15:37;;;;;;;1.17;0.32;;;19.70;60.10;;;;;;4970391;28;20117;-76
2023/03/29 02:18:06;;;;;;;1.95;0.80;;;19.70;60.10;;;;;;4952095;28;20051;-77
2023/03/29 02:20:37;;;;;;;1.55;0.22;;;19.60;60.20;;;;;;4952919;28;20069;-77
2023/03/29 02:23:08;;;;;;;1.75;0.68;;;19.60;60.20;;;;;;4970734;28;20050;-77
2023/03/29 02:25:36;;;;;;;1.83;1.02;;;19.60;60.20;;;;;;4952984;28;20507;-77
2023/03/29 02:28:04;;;;;;;1.52;0.80;;;19.50;60.20;;;;;;4970327;28;20582;-77
2023/03/29 02:30:38;;;;;;;2.00;0.93;;;19.50;60.20;;;;;;4952928;28;20059;-77
2023/03/29 02:33:14;;;;;;;1.42;0.75;;;19.50;60.30;;;;;;4968488;28;20055;-77
2023/03/29 02:35:47;;;;;;;1.73;0.75;;;19.50;60.30;;;;;;4955344;28;20137;-77
2023/03/29 02:38:15;;;;;;;1.48;0.80;;;19.40;60.30;;;;;;4970610;28;20054;-76
2023/03/29 02:40:43;;;;;;;2.08;0.55;;;19.40;60.30;;;;;;4970216;28;20055;-76
2023/03/29 02:43:11;;;;;;;2.03;0.70;;;19.40;60.40;;;;;;4952754;28;20065;-77
2023/03/29 02:45:41;;;;;;;2.15;0.57;;;19.40;60.40;;;;;;4973930;28;20050;-77
2023/03/29 02:48:12;;;;;;;1.70;0.93;;;19.40;60.40;;;;;;4973691;28;20055;-77
2023/03/29 02:50:42;;;;;;;1.83;0.80;;;19.40;60.50;;;;;;4973602;28;20076;-77
2023/03/29 02:53:14;;;;;;;1.15;0.20;;;19.40;60.40;;;;;;4954427;29;20051;-76
2023/03/29 02:55:41;;;;;;;1.70;0.73;;;19.40;60.40;;;;;;4937031;29;20059;-77
2023/03/29 02:58:09;;;;;;;1.42;0.63;;;19.40;60.30;;;;;;4954482;29;20062;-77
2023/03/29 03:00:37;;;;;;;1.13;0.63;;;19.40;60.30;;;;;;4954054;29;20066;-77
2023/03/29 03:03:05;;;;;;;1.05;0.13;;;19.50;60.30;;;;;;4954469;29;20055;-77
2023/03/29 03:05:34;;;;;;;2.22;1.25;;;19.50;60.20;;;;;;4965214;28;20063;-77
2023/03/29 03:08:01;;;;;;;1.38;0.73;;;19.60;60.20;;;;;;4972544;28;20051;-77
2023/03/29 03:10:28;;;;;;;2.33;0.85;;;19.70;60.10;;;;;;4973298;28;20066;-77
2023/03/29 03:12:55;;;;;;;1.25;0.50;;;19.70;60.10;;;;;;4955861;28;20047;-77
2023/03/29 03:15:23;;;;;;;1.73;0.50;;;19.70;60.00;;;;;;4973191;28;20436;-77
2023/03/29 03:17:49;;;;;;;1.40;0.63;;;19.80;59.90;;;;;;4973480;28;20065;-78
2023/03/29 03:20:16;;;;;;;1.80;0.93;;;19.80;59.80;;;;;;4973132;28;20066;-77
2023/03/29 03:22:47;;;;;;;1.75;0.20;;;20.00;59.70;;;;;;4973326;28;20055;-77
2023/03/29 03:25:15;;;;;;;1.58;0.90;;;20.00;59.50;;;;;;4968416;28;20063;-75
2023/03/29 03:27:43;;;;;;;1.65;0.77;;;20.10;59.40;;;;;;4954106;28;20051;-77
2023/03/29 03:30:11;;;;;;;1.42;0.20;;;20.20;60.00;;;;;;4953975;29;20047;-77
2023/03/29 03:32:38;;;;;;;1.90;0.93;;;20.20;59.20;;;;;;4954906;28;20139;-76
2023/03/29 03:35:07;;;;;;;1.40;0.60;;;20.20;59.10;;;;;;4972872;28;20046;-77
2023/03/29 03:37:34;;;;;;;1.33;0.30;;;20.20;59.10;;;;;;4973247;28;20137;-77
2023/03/29 03:40:04;;;;;;;1.20;0.10;;;20.30;59.20;;;;;;4972759;28;20566;-77
2023/03/29 03:42:31;;;;;;;1.35;0.70;;;20.30;59.20;;;;;;4972224;28;20062;-77
2023/03/29 03:44:57;;;;;;;1.65;0.25;;;20.20;59.10;;;;;;4972728;28;20511;-77
2023/03/29 03:47:24;;;;;;;1.60;0.90;;;20.20;59.20;;;;;;4973018;28;20097;-77
2023/03/29 03:49:51;;;;;;;1.67;0.77;;;20.20;59.20;;;;;;4972897;28;20062;-77
2023/03/29 03:52:18;;;;;;;1.83;0.80;;;20.10;59.20;;;;;;4955084;28;20058;-76
2023/03/29 03:54:47;;;;;;;1.52;0.70;;;20.10;59.30;;;;;;4971158;28;20055;-77
2023/03/29 03:57:15;;;;;;;1.50;0.65;;;20.10;59.30;;;;;;4953301;28;20050;-77
2023/03/29 03:59:42;;;;;;;1.55;0.20;;;20.00;59.40;;;;;;4951497;28;20047;-77
2023/03/29 04:02:09;;;;;;;1.80;0.70;;;20.00;59.40;;;;;;4972449;28;20383;-77
2023/03/29 04:04:36;;;;;;;2.03;1.15;;;20.00;59.50;;;;;;4972210;28;20055;-77
2023/03/29 04:07:03;;;;;;;0.98;0.65;;;19.90;59.50;;;;;;4954936;28;20058;-77
2023/03/29 04:09:30;;;;;;;1.52;0.45;;;19.90;59.50;;;;;;4954991;28;20054;-77
2023/03/29 04:11:58;;;;;;;1.17;0.98;;;19.90;59.60;;;;;;4972600;28;20047;-77
2023/03/29 04:14:26;;;;;;;1.77;0.60;;;19.90;59.60;;;;;;4972299;28;20376;-76
2023/03/29 04:16:54;;;;;;;2.20;0.22;;;19.80;59.60;;;;;;4954288;28;20059;-76
2023/03/29 04:19:21;;;;;;;1.30;0.55;;;19.80;59.70;;;;;;4955246;28;20055;-76
2023/03/29 04:21:50;;;;;;;1.40;0.70;;;19.70;59.60;;;;;;4952879;29;20055;-77
2023/03/29 04:24:17;;;;;;;1.70;0.90;;;19.70;59.70;;;;;;4940463;28;20125;-77
2023/03/29 04:26:44;;;;;;;1.70;0.70;;;19.70;59.70;;;;;;4963419;28;20146;-77
2023/03/29 04:29:11;;;;;;;1.20;0.80;;;19.60;59.70;;;;;;4971515;28;20117;-77
2023/03/29 04:31:39;;;;;;;1.13;0.20;;;19.60;59.80;;;;;;4950489;28;20062;-76
2023/03/29 04:34:06;;;;;;;1.33;0.80;;;19.60;59.90;;;;;;4952979;28;20047;-76
2023/03/29 04:36:33;;;;;;;1.67;0.70;;;19.50;59.90;;;;;;4953725;28;20420;-76
2023/03/29 04:39:00;;;;;;;1.38;0.68;;;19.50;60.00;;;;;;4971322;28;20073;-76
2023/03/29 04:41:27;;;;;;;1.25;0.55;;;19.50;60.00;;;;;;4970738;28;20137;-75
2023/03/29 04:43:54;;;;;;;1.15;0.20;;;19.50;60.00;;;;;;4971075;28;20559;-76
2023/03/29 04:46:24;;;;;;;1.00;0.70;;;19.40;60.00;;;;;;4971220;28;20051;-76
2023/03/29 04:48:52;;;;;;;1.33;1.20;;;19.40;60.00;;;;;;4971597;28;20058;-75
2023/03/29 04:51:21;;;;;;;0.90;0.20;;;19.40;60.20;;;;;;4942195;28;20085;-75
2023/03/29 04:53:49;;;;;;;1.25;0.20;;;19.40;60.10;;;;;;4953559;28;20799;-75
2023/03/29 04:56:16;;;;;;;1.20;0.85;;;19.40;60.10;;;;;;4971318;28;20102;-75
2023/03/29 04:58:44;;;;;;;1.05;0.22;;;19.40;60.10;;;;;;4971185;28;20129;-76
2023/03/29 05:01:11;;;;;;;1.27;0.63;;;19.40;60.20;;;;;;4970889;28;20507;-76
2023/03/29 05:03:38;;;;;;;1.20;0.20;;;19.50;60.10;;;;;;4969869;28;20061;-75
2023/03/29 05:06:08;;;;;;;0.98;0.13;;;19.50;60.00;;;;;;4970013;28;20046;-76
2023/03/29 05:08:38;;;;;;;1.35;0.32;;;19.50;60.00;;;;;;4952249;28;20054;-76
2023/03/29 05:11:06;;;;;;;0.65;0.15;;;19.60;60.00;;;;;;4953159;28;20059;-76
2023/03/29 05:13:34;;;;;;;1.33;0.88;;;19.60;60.00;;;;;;4938976;29;20058;-76
2023/03/29 05:16:01;;;;;;;1.15;0.20;;;19.60;59.80;;;;;;4941373;28;20051;-76
2023/03/29 05:18:28;;;;;;;1.63;0.65;;;19.60;59.70;;;;;;4953577;28;20462;-76
2023/03/29 05:20:55;;;;;;;1.92;0.63;;;19.70;59.60;;;;;;4969913;28;20058;-76
2023/03/29 05:23:24;;;;;;;1.63;0.88;;;19.80;59.60;;;;;;4952887;28;20050;-76
2023/03/29 05:25:52;;;;;;;1.40;0.75;;;19.80;59.40;;;;;;4949047;28;20138;-76
2023/03/29 05:28:19;;;;;;;1.35;0.75;;;19.90;59.40;;;;;;4950455;29;20063;-76
2023/03/29 05:30:47;;;;;;;1.25;0.68;;;20.00;59.30;;;;;;4958851;28;20496;-76
2023/03/29 05:33:14;;;;;;;1.63;0.88;;;20.10;59.20;;;;;;4955428;28;20126;-76
2023/03/29 05:35:42;;;;;;;1.45;0.70;;;20.10;59.00;;;;;;4951529;29;20419;-75
2023/03/29 05:38:09;;;;;;;1.05;0.20;;;20.20;59.00;;;;;;4934067;29;20054;-75
2023/03/29 05:40:37;;;;;;;1.10;0.10;;;20.20;58.90;;;;;;4951684;28;20150;-75
2023/03/29 05:43:04;;;;;;;1.30;0.75;;;20.20;58.80;;;;;;4952907;28;20050;-75
2023/03/29 05:45:32;;;;;;;1.50;0.60;;;20.20;58.80;;;;;;4953626;28;20470;-75
2023/03/29 05:47:59;;;;;;;1.17;0.57;;;20.20;59.60;;;;;;4953691;28;20066;-76
2023/03/29 05:50:26;;;;;;;1.27;0.63;;;20.20;58.90;;;;;;4970502;28;20105;-75
2023/03/29 05:52:53;;;;;;;1.10;0.20;;;20.20;58.90;;;;;;4970628;28;20113;-75
2023/03/29 05:55:20;;;;;;;1.17;0.68;;;20.20;59.00;;;;;;4953227;28;20061;-75
2023/03/29 05:57:48;;;;;;;1.38;0.65;;;20.20;59.10;;;;;;4969368;28;20416;-74
2023/03/29 06:00:22;;;;;;;1.83;0.90;;;20.20;59.10;;;;;;4958564;28;20051;-75
2023/03/29 06:02:49;;;;;;;1.52;0.68;;;20.10;59.10;;;;;;4952961;28;20113;-73
2023/03/29 06:05:16;;;;;;;1.23;0.80;;;20.10;59.90;;;;;;4969306;28;20054;-74
2023/03/29 06:07:43;;;;;;;1.75;0.95;;;20.00;59.80;;;;;;4970354;28;20057;-74
2023/03/29 06:10:11;;;;;;;2.13;0.80;;;20.00;59.20;;;;;;4952577;28;20117;-73
2023/03/29 06:12:38;;;;;;;0.70;0.20;;;19.90;59.20;;;;;;4967895;28;20060;-75
2023/03/29 06:15:08;;;;;;;1.48;0.70;;;19.90;59.30;;;;;;4946592;28;20136;-76
2023/03/29 06:17:36;;;;;;;0.85;0.20;;;19.90;59.40;;;;;;4952121;28;20146;-77
2023/03/29 06:20:07;;;;;;;0.90;0.25;;;19.80;60.10;;;;;;4973519;28;20638;-77
2023/03/29 06:22:34;;;;;;;1.20;0.60;;;19.80;59.60;;;;;;4968841;28;20107;-78
2023/03/29 06:25:01;;;;;;;0.88;0.10;;;19.80;59.70;;;;;;4955877;28;20063;-75
2023/03/29 06:27:28;;;;;;;1.65;1.00;;;19.80;59.80;;;;;;4973580;28;20086;-75
2023/03/29 06:29:55;;;;;;;1.45;0.35;;;19.80;59.90;;;;;;4951312;28;20047;-75
2023/03/29 06:32:24;;;;;;;1.27;0.70;;;19.70;60.00;;;;;;4948978;28;20935;-75
2023/03/29 06:34:51;;;;;;;1.50;0.60;;;19.70;60.10;;;;;;4973632;28;20051;-75
2023/03/29 06:37:18;;;;;;;3.25;0.82;;;19.60;60.00;;;;;;4973147;28;20582;-75
2023/03/29 06:39:44;;;;;;;2.72;0.60;;;19.60;60.10;;;;;;4956068;28;20476;-75
2023/03/29 06:42:11;;;;;;;1.45;0.68;;;19.60;60.10;;;;;;4971421;28;20507;-75
2023/03/29 06:44:38;;;;;;;2.67;0.98;;;19.50;60.20;;;;;;4972515;28;20058;-74
2023/03/29 06:47:06;;;;;;;1.55;1.05;;;19.50;60.20;;;;;;4960131;28;20050;-74
2023/03/29 06:49:34;;;;;;;1.50;0.63;;;19.50;60.20;;;;;;4954695;28;20466;-75
2023/03/29 06:52:01;;;;;;;1.55;0.80;;;19.50;60.30;;;;;;4973437;28;20078;-74
2023/03/29 06:54:28;;;;;;;1.65;0.70;;;19.50;60.30;;;;;;4972692;28;20558;-75
2023/03/29 06:56:56;;;;;;;5.82;0.38;;;19.40;60.20;;;;;;4954501;28;20058;-74
2023/03/29 06:59:23;;;;;;;1.38;0.60;;;19.40;60.30;;;;;;4973168;28;20050;-74
2023/03/29 07:01:51;;;;;;;1.20;0.80;;;19.40;60.30;;;;;;4955635;28;20058;-75
2023/03/29 07:04:18;;;;;;;2.67;1.05;;;19.40;60.30;;;;;;4955319;28;20101;-75
2023/03/29 07:06:57;;;;;;;1.55;0.85;;;19.40;60.30;;;;;;4970943;28;20046;-75
2023/03/29 07:09:25;;;;;;;1.35;0.20;;;19.40;60.30;;;;;;4955324;28;20113;-75
2023/03/29 07:11:51;;;;;;;1.33;0.73;;;19.50;60.30;;;;;;4954984;28;20499;-75
2023/03/29 07:14:18;;;;;;;1.58;0.88;;;19.50;60.30;;;;;;4955679;28;20105;-74
2023/03/29 07:16:45;;;;;;;1.13;0.52;;;19.50;60.20;;;;;;4972964;28;20105;-75
2023/03/29 07:19:13;;;;;;;1.13;0.77;;;19.60;60.20;;;;;;4955135;28;20094;-75
2023/03/29 07:21:40;;;;;;;1.10;0.20;;;19.60;60.10;;;;;;4954842;28;20518;-75
2023/03/29 07:24:09;;;;;;;1.73;0.50;;;19.70;60.10;;;;;;4970654;28;20105;-75
2023/03/29 07:26:36;;;;;;;0.90;0.10;;;19.70;60.00;;;;;;4961341;28;20491;-75
2023/03/29 07:29:02;;;;;;;1.20;0.77;;;19.80;59.90;;;;;;4954352;28;20047;-75
2023/03/29 07:31:30;;;;;;;1.73;0.60;;;19.90;59.80;;;;;;4954027;28;20479;-74
2023/03/29 07:33:59;;;;;;;1.17;0.57;;;19.90;59.70;;;;;;4972425;28;20072;-74
2023/03/29 07:36:27;;;;;;;1.63;0.70;;;19.90;59.60;;;;;;4972632;28;20128;-75
2023/03/29 07:38:55;;;;;;;1.20;0.70;;;20.00;59.50;;;;;;4972243;28;20078;-76
2023/03/29 07:41:23;;;;;;;1.02;0.15;;;20.10;59.40;;;;;;4958735;28;20052;-75
2023/03/29 07:43:50;;;;;;;1.98;1.05;;;20.20;59.30;;;;;;4936197;29;20055;-75
2023/03/29 07:46:18;;;;;;;2.05;1.85;;;20.20;59.20;;;;;;4953582;28;20051;-75
2023/03/29 07:48:45;;;;;;;1.48;0.60;;;20.30;59.20;;;;;;4936418;29;20496;-74
2023/03/29 07:51:12;;;;;;;1.08;0.10;;;20.30;59.10;;;;;;4953350;28;20524;-75
2023/03/29 07:53:39;;;;;;;0.88;0.10;;;20.30;59.10;;;;;;4935896;29;20102;-75
2023/03/29 07:56:06;;;;;;;1.15;0.68;;;20.30;59.10;;;;;;4957937;28;20523;-75
2023/03/29 07:58:35;;;;;;;1.05;0.50;;;20.30;59.10;;;;;;4951311;28;20082;-76
2023/03/29 08:01:02;;;;;;;1.48;0.10;;;20.30;59.20;;;;;;4971408;28;20050;-76
2023/03/29 08:03:29;;;;;;;1.02;0.32;;;20.30;59.20;;;;;;4954805;28;20307;-76
2023/03/29 08:05:56;;;;;;;1.33;0.90;;;20.20;59.20;;;;;;4955190;28;20051;-75
2023/03/29 08:08:23;;;;;;;1.48;0.80;;;20.30;59.30;;;;;;4972182;28;20051;-75
2023/03/29 08:10:50;;;;;;;1.42;1.20;;;20.20;59.20;;;;;;4972469;28;20520;-75
2023/03/29 08:13:17;;;;;;;1.15;0.60;;;20.20;59.30;;;;;;4972357;28;20727;-75
2023/03/29 08:15:47;;;;;;;1.58;0.75;;;20.20;59.30;;;;;;4955897;28;20047;-75
2023/03/29 08:18:14;;;;;;;1.00;0.75;;;20.20;59.40;;;;;;4952618;28;20766;-75
2023/03/29 08:20:41;;;;;;;0.90;0.20;;;20.10;59.30;;;;;;4952559;28;20513;-75
2023/03/29 08:23:08;;;;;;;1.33;0.70;;;20.10;59.40;;;;;;4935603;29;20062;-75
2023/03/29 08:25:36;;;;;;;1.20;0.80;;;20.10;59.40;;;;;;4958620;28;20047;-74
2023/03/29 08:28:03;;;;;;;1.38;0.73;;;20.10;59.50;;;;;;4968626;28;20133;-75
2023/03/29 08:30:30;;;;;;;1.67;0.80;;;20.10;59.50;;;;;;4971659;28;20050;-75
2023/03/29 08:32:58;;;;;;;1.05;0.15;;;20.10;60.20;;;;;;4936504;29;20070;-75
2023/03/29 08:35:25;;;;;;;1.67;0.60;;;20.00;59.50;;;;;;4952668;29;20047;-75
2023/03/29 08:37:52;;;;;;;1.65;1.10;;;20.00;59.50;;;;;;4951163;29;20065;-75
2023/03/29 08:40:22;;;;;;;1.48;0.68;;;20.00;59.60;;;;;;4951306;29;20398;-75
2023/03/29 08:43:04;;;;;;;1.92;1.15;;;19.90;59.60;;;;;;4951454;28;20065;-75
2023/03/29 08:45:38;;;;;;;1.35;0.93;;;19.90;59.60;;;;;;4952118;29;20862;-75
2023/03/29 08:48:17;;;;;;;1.27;0.70;;;19.90;59.70;;;;;;4959155;28;20050;-76
2023/03/29 08:50:47;;;;;;;1.45;0.77;;;19.80;59.60;;;;;;4971318;28;20058;-75
2023/03/29 08:53:20;;;;;;;1.83;1.08;;;19.90;60.30;;;;;;4970894;28;20113;-75
2023/03/29 08:55:48;;;;;;;1.42;0.75;;;19.80;59.70;;;;;;4970934;28;20061;-75
2023/03/29 08:58:18;;;;;;;1.60;0.47;;;19.80;59.70;;;;;;4970574;28;20039;-76
2023/03/29 09:00:47;;;;;;;;;;;19.80;59.70;;;;;;4971656;28;20058;-75
2023/03/29 09:03:21;;;;;;;1.08;0.57;;;19.80;59.60;;;;;;4971706;28;19929;-75
2023/03/29 09:05:51;;;;;;;1.25;0.63;;;19.80;59.70;;;;;;4945392;29;20063;-76
2023/03/29 09:08:20;;;;;;;1.40;0.80;;;19.80;59.70;;;;;;4970402;28;20601;-75
2023/03/29 09:11:01;;;;;;;1.67;0.60;;;19.70;59.70;;;;;;4971041;28;20067;-75
2023/03/29 09:13:38;;;;;;;1.70;0.63;;;19.80;59.80;;;;;;4971048;28;20050;-76
2023/03/29 09:16:13;;;;;;;1.38;0.63;;;19.70;59.70;;;;;;4953249;28;20050;-75
2023/03/29 09:18:51;;;;;;;1.48;0.73;;;19.70;59.80;;;;;;4970349;28;20483;-74
2023/03/29 09:21:26;;;;;;;1.38;0.85;;;19.70;59.80;;;;;;4971155;28;20066;-75
2023/03/29 09:24:10;;;;;;;1.88;1.17;;;19.70;59.80;;;;;;4953458;28;20055;-75
2023/03/29 09:26:43;;;;;;;1.50;0.88;;;19.70;59.90;;;;;;4970388;28;20130;-75
2023/03/29 09:29:25;;;;;;;1.30;0.30;;;19.70;59.80;;;;;;4970829;28;20487;-75
2023/03/29 09:31:54;;;;;;;1.67;0.20;;;19.60;59.80;;;;;;4981022;28;20050;-75
2023/03/29 09:34:27;;;;;;;1.05;0.30;;;19.70;59.80;;;;;;4990299;28;20471;-75
2023/03/29 09:36:56;;;;;;;1.80;0.88;;;19.60;59.80;;;;;;4972736;28;20570;-75
2023/03/29 09:39:27;;;;;;;2.17;0.80;;;19.70;59.90;;;;;;4978153;28;20054;-75
2023/03/29 09:41:57;;;;;;;1.80;0.73;;;19.70;59.90;;;;;;4934001;29;20059;-75
2023/03/29 09:44:30;;;;;;;1.20;0.80;;;19.70;59.90;;;;;;4934118;29;20051;-76
2023/03/29 09:47:01;;;;;;;1.55;0.90;;;19.60;59.80;;;;;;4944896;28;20850;-76
2023/03/29 09:49:34;;;;;;;1.58;0.60;;;19.70;59.90;;;;;;4969620;28;20055;-76
2023/03/29 09:52:04;;;;;;;1.98;0.70;;;19.70;59.90;;;;;;4953281;28;20054;-75
2023/03/29 09:54:32;;;;;;;1.33;0.73;;;19.70;59.80;;;;;;4970241;28;20059;-75
2023/03/29 09:56:59;;;;;;;2.20;1.10;;;19.70;59.80;;;;;;4968782;28;20113;-75
2023/03/29 09:59:26;;;;;;;1.48;0.77;;;19.80;59.70;;;;;;4970538;28;20081;-75
2023/03/29 10:01:53;;;;;;;1.40;0.65;;;19.80;60.30;;;;;;4969670;28;20433;-75
2023/03/29 10:04:21;;;;;;;1.52;0.20;;;19.90;59.70;;;;;;4970536;28;20050;-74
2023/03/29 10:06:52;;;;;;;1.98;0.90;;;19.90;59.60;;;;;;4953299;28;20055;-75
2023/03/29 10:09:21;;;;;;;1.75;0.32;;;20.00;59.50;;;;;;4953567;28;20114;-75
2023/03/29 10:11:52;;;;;;;1.65;0.57;;;20.10;59.40;;;;;;4970394;28;20061;-75
2023/03/29 10:14:21;;;;;;;1.58;0.85;;;20.10;59.30;;;;;;4957236;28;20052;-75
2023/03/29 10:16:55;;;;;;;1.60;0.70;;;20.20;59.30;;;;;;4951124;29;20362;-75
2023/03/29 10:19:26;;;;;;;1.55;0.60;;;20.30;59.20;;;;;;4956776;28;20054;-75
2023/03/29 10:21:56;;;;;;;1.30;0.90;;;20.30;59.10;;;;;;4977962;28;20062;-75
2023/03/29 10:24:24;;;;;;;1.40;0.70;;;20.40;59.00;;;;;;4968472;28;20137;-76
2023/03/29 10:26:54;;;;;;;1.48;0.32;;;20.50;59.00;;;;;;4961801;28;20058;-76
2023/03/29 10:29:22;;;;;;;1.63;0.70;;;20.50;58.90;;;;;;4967687;28;20051;-75
2023/03/29 10:31:50;;;;;;;1.85;0.65;;;20.50;58.90;;;;;;4895754;28;20077;-75
2023/03/29 10:34:18;;;;;;;1.40;1.08;;;20.60;59.00;;;;;;4972812;28;20070;-75
2023/03/29 10:36:51;;;;;;;1.30;0.77;;;20.60;59.00;;;;;;4966729;28;20057;-76
2023/03/29 10:39:19;;;;;;;1.45;0.90;;;20.60;59.00;;;;;;4968817;28;20089;-75
2023/03/29 10:41:51;;;;;;;1.67;0.80;;;20.60;59.10;;;;;;4967751;28;20051;-76
2023/03/29 10:44:27;;;;;;;1.10;0.68;;;20.60;59.10;;;;;;4969653;28;20137;-75
2023/03/29 10:46:54;;;;;;;1.45;0.88;;;20.60;59.20;;;;;;4955641;28;20051;-75
2023/03/29 10:49:24;;;;;;;1.15;0.60;;;20.60;59.20;;;;;;4963513;28;20435;-76
2023/03/29 10:51:52;;;;;;;1.20;0.98;;;20.60;59.40;;;;;;4969715;28;20046;-76
2023/03/29 10:54:23;;;;;;;1.20;0.65;;;20.50;59.50;;;;;;4967881;28;20412;-76
2023/03/29 10:56:55;;;;;;;1.17;0.30;;;20.50;59.40;;;;;;4968860;28;20088;-76
2023/03/29 10:59:29;;;;;;;1.42;0.80;;;20.50;59.50;;;;;;4967636;28;20539;-75
2023/03/29 11:02:48;;;;;;;1.40;0.80;;;20.50;59.70;;;;;;4968572;28;20563;-75
2023/03/29 11:05:24;;;;;;;1.55;0.90;;;20.50;59.70;;;;;;4964368;28;20047;-78
2023/03/29 11:08:10;;;;;;;1.40;0.65;;;20.50;59.80;;;;;;4977005;28;20046;-78
2023/03/29 11:10:47;;;;;;;1.20;0.20;;;20.40;59.90;;;;;;4991392;28;20050;-78
2023/03/29 11:13:22;;;;;;;2.20;0.70;;;20.40;59.90;;;;;;4992092;28;20053;-78
2023/03/29 11:15:57;;;;;;;1.50;0.70;;;20.40;60.00;;;;;;4991518;28;20058;-85
2023/03/29 11:18:39;;;;;;;;;;;20.40;60.70;;;;;;4991768;28;20570;-85
2023/03/29 11:21:16;;;;;;;1.98;0.82;;;20.30;60.10;;;;;;4991747;28;20441;-87
2023/03/29 11:23:52;;;;;;;1.13;0.20;;;20.30;60.10;;;;;;4980259;28;20517;-78
2023/03/29 11:26:23;;;;;;;;;;;20.30;60.20;;;;;;4990229;28;20050;-79
2023/03/29 11:28:56;;;;;;;1.38;0.80;;;20.30;60.30;;;;;;4991624;28;19929;-79
2023/03/29 11:31:32;;;;;;;1.88;1.00;;;20.30;60.20;;;;;;4990989;28;20517;-80
2023/03/29 11:34:07;;;;;;;;;;;20.30;60.30;;;;;;4991082;28;20054;-79
2023/03/29 11:36:43;;;;;;;1.52;0.65;;;20.30;60.40;;;;;;4975321;28;19926;-79
2023/03/29 11:39:16;;;;;;;1.00;0.20;;;20.20;60.30;;;;;;5006947;28;20486;-78
2023/03/29 11:41:48;;;;;;;2.83;0.98;;;20.20;60.40;;;;;;4991570;28;20042;-79
2023/03/29 11:44:19;;;;;;;1.92;0.98;;;20.20;60.40;;;;;;4990068;28;20049;-79
2023/03/29 11:46:49;;;;;;;2.00;0.75;;;20.20;60.50;;;;;;4991449;28;20062;-79
2023/03/29 11:49:20;;;;;;;1.63;0.60;;;20.20;60.50;;;;;;4990164;28;20050;-80
2023/03/29 11:51:52;;;;;;;1.25;0.80;;;20.20;60.50;;;;;;4991521;28;20054;-79
2023/03/29 11:54:25;;;;;;;1.92;0.93;;;20.20;60.60;;;;;;4991812;28;20050;-79
2023/03/29 11:57:00;;;;;;;1.60;0.80;;;20.20;60.70;;;;;;4983335;28;20152;-79
2023/03/29 11:59:32;;;;;;;2.15;1.15;;;20.20;60.70;;;;;;4990439;28;20051;-79
2023/03/29 12:02:05;;;;;;;1.23;1.08;;;20.20;60.70;;;;;;4990087;28;20431;-79
2023/03/29 12:04:37;;;;;;;1.95;1.17;;;20.20;60.70;;;;;;4981140;28;20057;-79
2023/03/29 12:07:12;;;;;;;1.88;1.13;;;20.20;60.80;;;;;;4991119;28;20703;-79
2023/03/29 12:09:45;;;;;;;1.90;0.90;;;20.20;60.80;;;;;;4990336;28;20062;-79
2023/03/29 12:12:19;;;;;;;1.58;1.25;;;20.20;60.80;;;;;;4986474;28;20070;-79
2023/03/29 12:14:58;;;;;;;2.10;1.00;;;20.20;61.10;;;;;;4971159;28;20054;-79
2023/03/29 12:17:30;;;;;;;1.20;0.85;;;20.20;60.80;;;;;;4969850;28;20057;-80
2023/03/29 12:20:05;;;;;;;1.42;0.20;;;20.20;60.80;;;;;;5002639;28;20505;-79
2023/03/29 12:22:32;;;;;;;1.77;1.00;;;20.20;60.80;;;;;;4990346;28;20051;-79
2023/03/29 12:25:02;;;;;;;1.35;0.98;;;20.20;60.90;;;;;;4991519;28;20054;-80
2023/03/29 12:27:35;;;;;;;1.85;0.73;;;20.20;60.90;;;;;;4990324;28;20097;-79
2023/03/29 12:30:23;;;;;;;1.40;0.20;;;20.20;60.90;;;;;;4988183;28;20054;-79
2023/03/29 12:33:20;;;;;;;0.95;0.20;;;20.20;60.90;;;;;;4990443;28;20064;-80
2023/03/29 12:35:57;;;;;;;1.75;0.77;;;20.20;60.90;;;;;;4988045;28;20109;-80
2023/03/29 12:38:26;;;;;;;1.77;0.82;;;20.20;60.90;;;;;;4991645;28;20058;-79
2023/03/29 12:40:56;;;;;;;1.80;1.23;;;20.20;60.90;;;;;;4991732;28;20057;-79
2023/03/29 12:43:27;;;;;;;1.45;0.98;;;20.20;60.90;;;;;;4990644;28;20545;-79
2023/03/29 12:45:58;;;;;;;1.48;0.35;;;20.20;60.90;;;;;;4990597;28;20050;-80
2023/03/29 12:48:27;;;;;;;1.77;0.90;;;20.20;61.00;;;;;;4972242;28;20054;-80
2023/03/29 12:50:59;;;;;;;;;;;20.20;61.00;;;;;;4971463;28;20484;-80
2023/03/29 12:53:31;;;;;;;1.77;1.00;;;20.20;61.00;;;;;;4970940;28;20016;-80
2023/03/29 12:56:11;;;;;;;1.30;0.75;;;20.20;60.90;;;;;;4972184;28;20047;-80
2023/03/29 12:58:51;;;;;;;1.90;1.00;;;20.20;60.90;;;;;;4977416;28;20081;-79
2023/03/29 13:01:28;;;;;;;1.45;0.82;;;20.20;61.00;;;;;;4991015;28;20054;-80
2023/03/29 13:04:14;;;;;;;1.92;0.30;;;20.30;61.10;;;;;;4980946;28;20088;-79